sensor_id;sensor_type;location;lat;lon;timestamp;P1;durP1;ratioP1;P2;durP2;ratioP2
19205;SDS011;59358;52.134;5.596;2022-09-03T00:00:13;3.55;;;2.10;;
19205;SDS011;59358;52.134;5.596;2022-09-03T00:02:42;5.05;;;2.13;;
19205;SDS011;59358;52.134;5.596;2022-09-03T00:05:16;4.05;;;2.05;;
19205;SDS011;59358;52.134;5.596;2022-09-03T00:07:50;4.57;;;1.80;;
19205;SDS011;59358;52.134;5.596;2022-09-03T00:10:24;3.80;;;2.20;;
19205;SDS011;59358;52.134;5.596;2022-09-03T00:12:55;3.20;;;1.95;;
19205;SDS011;59358;52.134;5.596;2022-09-03T00:15:25;5.00;;;2.17;;
19205;SDS011;59358;52.134;5.596;2022-09-03T00:17:53;5.28;;;2.10;;
19205;SDS011;59358;52.134;5.596;2022-09-03T00:20:25;2.45;;;2.10;;
19205;SDS011;59358;52.134;5.596;2022-09-03T00:22:57;2.42;;;2.10;;
19205;SDS011;59358;52.134;5.596;2022-09-03T00:25:27;2.75;;;2.50;;
19205;SDS011;59358;52.134;5.596;2022-09-03T00:28:01;3.90;;;2.13;;
19205;SDS011;59358;52.134;5.596;2022-09-03T00:30:33;5.22;;;2.50;;
19205;SDS011;59358;52.134;5.596;2022-09-03T00:33:02;4.97;;;2.55;;
19205;SDS011;59358;52.134;5.596;2022-09-03T00:35:36;5.93;;;2.28;;
19205;SDS011;59358;52.134;5.596;2022-09-03T00:38:08;4.53;;;2.47;;
19205;SDS011;59358;52.134;5.596;2022-09-03T00:40:42;2.70;;;1.88;;
19205;SDS011;59358;52.134;5.596;2022-09-03T00:43:22;3.75;;;1.90;;
19205;SDS011;59358;52.134;5.596;2022-09-03T00:46:00;3.35;;;2.10;;
19205;SDS011;59358;52.134;5.596;2022-09-03T00:48:34;4.03;;;2.00;;
19205;SDS011;59358;52.134;5.596;2022-09-03T00:51:15;2.65;;;2.00;;
19205;SDS011;59358;52.134;5.596;2022-09-03T00:53:52;4.70;;;2.10;;
19205;SDS011;59358;52.134;5.596;2022-09-03T00:56:26;4.63;;;1.83;;
19205;SDS011;59358;52.134;5.596;2022-09-03T00:59:13;4.82;;;2.17;;
19205;SDS011;59358;52.134;5.596;2022-09-03T01:01:50;4.57;;;2.00;;
19205;SDS011;59358;52.134;5.596;2022-09-03T01:04:33;3.33;;;2.03;;
19205;SDS011;59358;52.134;5.596;2022-09-03T01:07:10;5.40;;;2.03;;
19205;SDS011;59358;52.134;5.596;2022-09-03T01:09:46;5.05;;;2.20;;
19205;SDS011;59358;52.134;5.596;2022-09-03T01:12:22;3.92;;;2.28;;
19205;SDS011;59358;52.134;5.596;2022-09-03T01:15:02;2.65;;;2.03;;
19205;SDS011;59358;52.134;5.596;2022-09-03T01:17:38;4.68;;;2.20;;
19205;SDS011;59358;52.134;5.596;2022-09-03T01:20:35;3.35;;;1.80;;
19205;SDS011;59358;52.134;5.596;2022-09-03T01:26:32;6.40;;;2.38;;
19205;SDS011;59358;52.134;5.596;2022-09-03T01:29:17;4.28;;;2.20;;
19205;SDS011;59358;52.134;5.596;2022-09-03T01:31:53;4.05;;;2.00;;
19205;SDS011;59358;52.134;5.596;2022-09-03T01:34:30;2.65;;;1.90;;
19205;SDS011;59358;52.134;5.596;2022-09-03T01:37:11;2.17;;;1.98;;
19205;SDS011;59358;52.134;5.596;2022-09-03T01:39:48;6.10;;;2.45;;
19205;SDS011;59358;52.134;5.596;2022-09-03T01:42:25;3.72;;;2.20;;
19205;SDS011;59358;52.134;5.596;2022-09-03T01:47:44;4.47;;;1.70;;
19205;SDS011;59358;52.134;5.596;2022-09-03T01:50:23;5.55;;;1.92;;
19205;SDS011;59358;52.134;5.596;2022-09-03T01:53:01;6.35;;;2.30;;
19205;SDS011;59358;52.134;5.596;2022-09-03T01:55:32;5.30;;;2.08;;
19205;SDS011;59358;52.134;5.596;2022-09-03T01:58:13;3.47;;;2.40;;
19205;SDS011;59358;52.134;5.596;2022-09-03T02:00:45;1.73;;;1.63;;
19205;SDS011;59358;52.134;5.596;2022-09-03T02:03:22;3.45;;;1.90;;
19205;SDS011;59358;52.134;5.596;2022-09-03T02:05:50;2.53;;;1.80;;
19205;SDS011;59358;52.134;5.596;2022-09-03T02:08:17;1.88;;;1.73;;
19205;SDS011;59358;52.134;5.596;2022-09-03T02:10:45;3.28;;;2.10;;
19205;SDS011;59358;52.134;5.596;2022-09-03T02:13:16;2.60;;;1.90;;
19205;SDS011;59358;52.134;5.596;2022-09-03T02:15:47;4.88;;;2.33;;
19205;SDS011;59358;52.134;5.596;2022-09-03T02:18:17;5.63;;;2.08;;
19205;SDS011;59358;52.134;5.596;2022-09-03T02:20:47;8.73;;;2.17;;
19205;SDS011;59358;52.134;5.596;2022-09-03T02:23:15;5.43;;;2.20;;
19205;SDS011;59358;52.134;5.596;2022-09-03T02:25:43;5.25;;;2.30;;
19205;SDS011;59358;52.134;5.596;2022-09-03T02:28:15;2.97;;;2.50;;
19205;SDS011;59358;52.134;5.596;2022-09-03T02:30:42;4.53;;;1.83;;
19205;SDS011;59358;52.134;5.596;2022-09-03T02:33:09;4.57;;;2.30;;
19205;SDS011;59358;52.134;5.596;2022-09-03T02:35:36;3.22;;;1.90;;
19205;SDS011;59358;52.134;5.596;2022-09-03T02:38:12;3.83;;;2.30;;
19205;SDS011;59358;52.134;5.596;2022-09-03T02:40:41;2.95;;;2.10;;
19205;SDS011;59358;52.134;5.596;2022-09-03T02:43:09;4.03;;;1.95;;
19205;SDS011;59358;52.134;5.596;2022-09-03T02:45:40;5.18;;;2.25;;
19205;SDS011;59358;52.134;5.596;2022-09-03T02:48:12;2.97;;;1.90;;
19205;SDS011;59358;52.134;5.596;2022-09-03T02:50:41;2.42;;;2.00;;
19205;SDS011;59358;52.134;5.596;2022-09-03T02:53:08;2.17;;;1.90;;
19205;SDS011;59358;52.134;5.596;2022-09-03T02:55:37;3.90;;;1.83;;
19205;SDS011;59358;52.134;5.596;2022-09-03T02:58:03;2.35;;;2.15;;
19205;SDS011;59358;52.134;5.596;2022-09-03T03:00:32;7.00;;;1.95;;
19205;SDS011;59358;52.134;5.596;2022-09-03T03:03:01;5.45;;;2.00;;
19205;SDS011;59358;52.134;5.596;2022-09-03T03:05:29;2.15;;;1.73;;
19205;SDS011;59358;52.134;5.596;2022-09-03T03:08:03;4.20;;;2.00;;
19205;SDS011;59358;52.134;5.596;2022-09-03T03:10:30;2.47;;;1.90;;
19205;SDS011;59358;52.134;5.596;2022-09-03T03:12:59;2.30;;;2.10;;
19205;SDS011;59358;52.134;5.596;2022-09-03T03:15:25;2.30;;;2.10;;
19205;SDS011;59358;52.134;5.596;2022-09-03T03:17:54;1.95;;;1.70;;
19205;SDS011;59358;52.134;5.596;2022-09-03T03:20:21;3.45;;;2.30;;
19205;SDS011;59358;52.134;5.596;2022-09-03T03:22:48;3.08;;;1.90;;
19205;SDS011;59358;52.134;5.596;2022-09-03T03:25:15;11.18;;;2.85;;
19205;SDS011;59358;52.134;5.596;2022-09-03T03:27:42;2.00;;;1.90;;
19205;SDS011;59358;52.134;5.596;2022-09-03T03:30:11;2.13;;;1.92;;
19205;SDS011;59358;52.134;5.596;2022-09-03T03:32:38;4.15;;;2.10;;
19205;SDS011;59358;52.134;5.596;2022-09-03T03:35:05;4.63;;;2.13;;
19205;SDS011;59358;52.134;5.596;2022-09-03T03:37:35;2.25;;;2.00;;
19205;SDS011;59358;52.134;5.596;2022-09-03T03:40:03;3.20;;;2.10;;
19205;SDS011;59358;52.134;5.596;2022-09-03T03:42:31;2.70;;;2.22;;
19205;SDS011;59358;52.134;5.596;2022-09-03T03:44:59;3.58;;;2.22;;
19205;SDS011;59358;52.134;5.596;2022-09-03T03:47:28;3.13;;;2.17;;
19205;SDS011;59358;52.134;5.596;2022-09-03T03:49:55;4.35;;;2.30;;
19205;SDS011;59358;52.134;5.596;2022-09-03T03:52:21;3.90;;;2.15;;
19205;SDS011;59358;52.134;5.596;2022-09-03T03:54:48;5.47;;;2.58;;
19205;SDS011;59358;52.134;5.596;2022-09-03T03:57:15;4.00;;;2.20;;
19205;SDS011;59358;52.134;5.596;2022-09-03T03:59:43;4.53;;;2.13;;
19205;SDS011;59358;52.134;5.596;2022-09-03T04:02:10;4.13;;;2.33;;
19205;SDS011;59358;52.134;5.596;2022-09-03T04:04:38;3.50;;;2.08;;
19205;SDS011;59358;52.134;5.596;2022-09-03T04:07:05;2.15;;;1.95;;
19205;SDS011;59358;52.134;5.596;2022-09-03T04:09:32;3.70;;;1.92;;
19205;SDS011;59358;52.134;5.596;2022-09-03T04:11:59;2.63;;;1.83;;
19205;SDS011;59358;52.134;5.596;2022-09-03T04:14:27;4.90;;;2.10;;
19205;SDS011;59358;52.134;5.596;2022-09-03T04:16:55;5.78;;;2.47;;
19205;SDS011;59358;52.134;5.596;2022-09-03T04:19:22;4.15;;;2.03;;
19205;SDS011;59358;52.134;5.596;2022-09-03T04:21:50;3.67;;;2.05;;
19205;SDS011;59358;52.134;5.596;2022-09-03T04:24:17;3.38;;;2.45;;
19205;SDS011;59358;52.134;5.596;2022-09-03T04:26:44;4.13;;;2.00;;
19205;SDS011;59358;52.134;5.596;2022-09-03T04:29:11;2.58;;;2.08;;
19205;SDS011;59358;52.134;5.596;2022-09-03T04:31:38;3.17;;;2.03;;
19205;SDS011;59358;52.134;5.596;2022-09-03T04:34:24;4.55;;;2.40;;
19205;SDS011;59358;52.134;5.596;2022-09-03T04:36:53;2.38;;;2.05;;
19205;SDS011;59358;52.134;5.596;2022-09-03T04:39:21;4.13;;;2.35;;
19205;SDS011;59358;52.134;5.596;2022-09-03T04:41:48;3.97;;;2.72;;
19205;SDS011;59358;52.134;5.596;2022-09-03T04:44:14;4.05;;;2.00;;
19205;SDS011;59358;52.134;5.596;2022-09-03T04:46:41;3.55;;;2.40;;
19205;SDS011;59358;52.134;5.596;2022-09-03T04:49:11;3.08;;;2.33;;
19205;SDS011;59358;52.134;5.596;2022-09-03T04:51:39;4.80;;;2.17;;
19205;SDS011;59358;52.134;5.596;2022-09-03T04:54:07;3.25;;;2.22;;
19205;SDS011;59358;52.134;5.596;2022-09-03T04:56:34;5.22;;;2.10;;
19205;SDS011;59358;52.134;5.596;2022-09-03T04:59:05;11.50;;;2.72;;
19205;SDS011;59358;52.134;5.596;2022-09-03T05:01:34;4.45;;;2.20;;
19205;SDS011;59358;52.134;5.596;2022-09-03T05:04:02;3.72;;;2.28;;
19205;SDS011;59358;52.134;5.596;2022-09-03T05:06:30;5.47;;;2.33;;
19205;SDS011;59358;52.134;5.596;2022-09-03T05:08:57;3.15;;;2.20;;
19205;SDS011;59358;52.134;5.596;2022-09-03T05:11:27;5.00;;;2.08;;
19205;SDS011;59358;52.134;5.596;2022-09-03T05:13:55;4.20;;;2.40;;
19205;SDS011;59358;52.134;5.596;2022-09-03T05:16:23;12.52;;;2.53;;
19205;SDS011;59358;52.134;5.596;2022-09-03T05:18:52;4.38;;;2.20;;
19205;SDS011;59358;52.134;5.596;2022-09-03T05:21:19;4.60;;;2.42;;
19205;SDS011;59358;52.134;5.596;2022-09-03T05:23:47;2.65;;;2.15;;
19205;SDS011;59358;52.134;5.596;2022-09-03T05:26:16;3.22;;;2.22;;
19205;SDS011;59358;52.134;5.596;2022-09-03T05:28:45;8.15;;;2.15;;
19205;SDS011;59358;52.134;5.596;2022-09-03T05:31:13;4.32;;;2.05;;
19205;SDS011;59358;52.134;5.596;2022-09-03T05:33:42;2.03;;;1.73;;
19205;SDS011;59358;52.134;5.596;2022-09-03T05:36:10;3.65;;;1.73;;
19205;SDS011;59358;52.134;5.596;2022-09-03T05:38:40;3.13;;;1.85;;
19205;SDS011;59358;52.134;5.596;2022-09-03T05:41:07;3.70;;;1.85;;
19205;SDS011;59358;52.134;5.596;2022-09-03T05:43:35;3.58;;;1.83;;
19205;SDS011;59358;52.134;5.596;2022-09-03T05:46:05;4.38;;;2.10;;
19205;SDS011;59358;52.134;5.596;2022-09-03T05:48:34;4.32;;;2.10;;
19205;SDS011;59358;52.134;5.596;2022-09-03T05:51:03;4.05;;;2.10;;
19205;SDS011;59358;52.134;5.596;2022-09-03T05:53:32;5.47;;;1.75;;
19205;SDS011;59358;52.134;5.596;2022-09-03T05:56:01;5.45;;;2.53;;
19205;SDS011;59358;52.134;5.596;2022-09-03T05:58:30;4.15;;;1.70;;
19205;SDS011;59358;52.134;5.596;2022-09-03T06:00:57;2.78;;;1.60;;
19205;SDS011;59358;52.134;5.596;2022-09-03T06:03:25;2.47;;;1.58;;
19205;SDS011;59358;52.134;5.596;2022-09-03T06:05:52;6.35;;;1.80;;
19205;SDS011;59358;52.134;5.596;2022-09-03T06:08:19;5.13;;;2.00;;
19205;SDS011;59358;52.134;5.596;2022-09-03T06:10:47;2.88;;;2.00;;
19205;SDS011;59358;52.134;5.596;2022-09-03T06:13:13;2.97;;;2.35;;
19205;SDS011;59358;52.134;5.596;2022-09-03T06:15:40;6.45;;;2.85;;
19205;SDS011;59358;52.134;5.596;2022-09-03T06:18:07;6.22;;;2.75;;
19205;SDS011;59358;52.134;5.596;2022-09-03T06:20:35;6.63;;;2.85;;
19205;SDS011;59358;52.134;5.596;2022-09-03T06:23:02;10.18;;;3.35;;
19205;SDS011;59358;52.134;5.596;2022-09-03T06:25:29;7.13;;;3.38;;
19205;SDS011;59358;52.134;5.596;2022-09-03T06:27:56;5.13;;;3.05;;
19205;SDS011;59358;52.134;5.596;2022-09-03T06:30:23;10.55;;;3.78;;
19205;SDS011;59358;52.134;5.596;2022-09-03T06:32:51;7.05;;;3.63;;
19205;SDS011;59358;52.134;5.596;2022-09-03T06:35:18;13.20;;;3.45;;
19205;SDS011;59358;52.134;5.596;2022-09-03T06:37:46;6.50;;;2.97;;
19205;SDS011;59358;52.134;5.596;2022-09-03T06:40:13;10.65;;;3.10;;
19205;SDS011;59358;52.134;5.596;2022-09-03T06:42:54;7.03;;;3.40;;
19205;SDS011;59358;52.134;5.596;2022-09-03T06:45:22;7.80;;;3.35;;
19205;SDS011;59358;52.134;5.596;2022-09-03T06:47:48;5.53;;;2.67;;
19205;SDS011;59358;52.134;5.596;2022-09-03T06:50:15;6.40;;;2.58;;
19205;SDS011;59358;52.134;5.596;2022-09-03T06:52:43;3.83;;;2.28;;
19205;SDS011;59358;52.134;5.596;2022-09-03T06:55:11;3.53;;;2.00;;
19205;SDS011;59358;52.134;5.596;2022-09-03T06:57:38;3.92;;;2.22;;
19205;SDS011;59358;52.134;5.596;2022-09-03T07:00:05;5.38;;;2.25;;
19205;SDS011;59358;52.134;5.596;2022-09-03T07:02:32;3.10;;;1.73;;
19205;SDS011;59358;52.134;5.596;2022-09-03T07:04:59;3.88;;;1.83;;
19205;SDS011;59358;52.134;5.596;2022-09-03T07:07:26;3.85;;;1.63;;
19205;SDS011;59358;52.134;5.596;2022-09-03T07:09:53;2.55;;;1.92;;
19205;SDS011;59358;52.134;5.596;2022-09-03T07:12:21;7.70;;;1.52;;
19205;SDS011;59358;52.134;5.596;2022-09-03T07:14:48;3.03;;;1.50;;
19205;SDS011;59358;52.134;5.596;2022-09-03T07:17:14;4.60;;;1.40;;
19205;SDS011;59358;52.134;5.596;2022-09-03T07:19:41;3.58;;;1.70;;
19205;SDS011;59358;52.134;5.596;2022-09-03T08:23:02;3.75;;;1.20;;
19205;SDS011;59358;52.134;5.596;2022-09-03T08:25:29;3.00;;;1.48;;
19205;SDS011;59358;52.134;5.596;2022-09-03T08:27:57;2.45;;;1.38;;
19205;SDS011;59358;52.134;5.596;2022-09-03T08:30:24;2.33;;;1.42;;
19205;SDS011;59358;52.134;5.596;2022-09-03T08:32:52;4.13;;;1.55;;
19205;SDS011;59358;52.134;5.596;2022-09-03T08:35:19;4.05;;;1.50;;
19205;SDS011;59358;52.134;5.596;2022-09-03T08:37:46;4.93;;;1.45;;
19205;SDS011;59358;52.134;5.596;2022-09-03T08:40:17;2.85;;;1.45;;
19205;SDS011;59358;52.134;5.596;2022-09-03T08:42:48;3.53;;;1.38;;
19205;SDS011;59358;52.134;5.596;2022-09-03T08:45:24;2.45;;;1.30;;
19205;SDS011;59358;52.134;5.596;2022-09-03T08:47:56;1.77;;;1.40;;
19205;SDS011;59358;52.134;5.596;2022-09-03T08:50:30;4.72;;;1.70;;
19205;SDS011;59358;52.134;5.596;2022-09-03T08:52:59;1.60;;;1.48;;
19205;SDS011;59358;52.134;5.596;2022-09-03T08:55:34;2.17;;;1.13;;
19205;SDS011;59358;52.134;5.596;2022-09-03T08:58:08;11.23;;;2.03;;
19205;SDS011;59358;52.134;5.596;2022-09-03T09:00:41;3.40;;;1.73;;
19205;SDS011;59358;52.134;5.596;2022-09-03T09:03:20;5.45;;;1.88;;
19205;SDS011;59358;52.134;5.596;2022-09-03T09:06:13;5.47;;;1.63;;
19205;SDS011;59358;52.134;5.596;2022-09-03T09:08:47;6.18;;;1.30;;
19205;SDS011;59358;52.134;5.596;2022-09-03T09:11:28;10.63;;;2.20;;
19205;SDS011;59358;52.134;5.596;2022-09-03T09:14:07;2.28;;;1.20;;
19205;SDS011;59358;52.134;5.596;2022-09-03T09:16:44;3.40;;;1.33;;
19205;SDS011;59358;52.134;5.596;2022-09-03T09:19:19;4.00;;;1.45;;
19205;SDS011;59358;52.134;5.596;2022-09-03T09:21:58;2.30;;;1.30;;
19205;SDS011;59358;52.134;5.596;2022-09-03T09:24:32;6.18;;;1.80;;
19205;SDS011;59358;52.134;5.596;2022-09-03T09:27:15;3.83;;;1.45;;
19205;SDS011;59358;52.134;5.596;2022-09-03T09:29:44;5.85;;;1.63;;
19205;SDS011;59358;52.134;5.596;2022-09-03T09:32:13;2.90;;;1.25;;
19205;SDS011;59358;52.134;5.596;2022-09-03T09:34:43;2.78;;;1.60;;
19205;SDS011;59358;52.134;5.596;2022-09-03T09:37:12;3.20;;;1.35;;
19205;SDS011;59358;52.134;5.596;2022-09-03T09:39:52;4.35;;;1.25;;
19205;SDS011;59358;52.134;5.596;2022-09-03T09:42:23;4.63;;;1.33;;
19205;SDS011;59358;52.134;5.596;2022-09-03T09:44:51;6.15;;;1.75;;
19205;SDS011;59358;52.134;5.596;2022-09-03T09:47:22;3.80;;;1.40;;
19205;SDS011;59358;52.134;5.596;2022-09-03T09:49:52;1.98;;;1.10;;
19205;SDS011;59358;52.134;5.596;2022-09-03T09:52:21;4.10;;;1.30;;
19205;SDS011;59358;52.134;5.596;2022-09-03T09:54:52;2.05;;;1.35;;
19205;SDS011;59358;52.134;5.596;2022-09-03T09:57:33;2.47;;;1.23;;
19205;SDS011;59358;52.134;5.596;2022-09-03T10:00:02;1.83;;;1.50;;
19205;SDS011;59358;52.134;5.596;2022-09-03T10:02:33;2.33;;;1.48;;
19205;SDS011;59358;52.134;5.596;2022-09-03T10:05:11;1.63;;;1.27;;
19205;SDS011;59358;52.134;5.596;2022-09-03T10:07:39;4.72;;;1.25;;
19205;SDS011;59358;52.134;5.596;2022-09-03T10:10:13;2.50;;;1.63;;
19205;SDS011;59358;52.134;5.596;2022-09-03T10:12:45;6.03;;;1.58;;
19205;SDS011;59358;52.134;5.596;2022-09-03T10:15:21;2.63;;;1.17;;
19205;SDS011;59358;52.134;5.596;2022-09-03T10:17:55;2.50;;;1.30;;
19205;SDS011;59358;52.134;5.596;2022-09-03T10:20:30;2.72;;;1.20;;
19205;SDS011;59358;52.134;5.596;2022-09-03T10:23:06;5.53;;;1.85;;
19205;SDS011;59358;52.134;5.596;2022-09-03T10:25:38;4.00;;;1.65;;
19205;SDS011;59358;52.134;5.596;2022-09-03T10:28:15;4.63;;;1.23;;
19205;SDS011;59358;52.134;5.596;2022-09-03T10:30:48;2.47;;;1.10;;
19205;SDS011;59358;52.134;5.596;2022-09-03T10:33:40;1.83;;;1.27;;
19205;SDS011;59358;52.134;5.596;2022-09-03T10:36:14;4.38;;;1.55;;
19205;SDS011;59358;52.134;5.596;2022-09-03T10:38:47;3.28;;;1.27;;
19205;SDS011;59358;52.134;5.596;2022-09-03T10:41:23;2.45;;;1.20;;
19205;SDS011;59358;52.134;5.596;2022-09-03T10:44:04;2.30;;;1.40;;
19205;SDS011;59358;52.134;5.596;2022-09-03T10:46:49;4.70;;;1.80;;
19205;SDS011;59358;52.134;5.596;2022-09-03T10:49:29;3.08;;;1.50;;
19205;SDS011;59358;52.134;5.596;2022-09-03T10:52:06;5.47;;;1.40;;
19205;SDS011;59358;52.134;5.596;2022-09-03T10:54:43;6.00;;;1.45;;
19205;SDS011;59358;52.134;5.596;2022-09-03T10:57:21;3.83;;;1.70;;
19205;SDS011;59358;52.134;5.596;2022-09-03T11:00:03;1.30;;;1.20;;
19205;SDS011;59358;52.134;5.596;2022-09-03T11:02:45;5.05;;;1.42;;
19205;SDS011;59358;52.134;5.596;2022-09-03T11:05:22;1.60;;;1.10;;
19205;SDS011;59358;52.134;5.596;2022-09-03T11:07:56;3.10;;;1.60;;
19205;SDS011;59358;52.134;5.596;2022-09-03T11:10:27;6.15;;;1.58;;
19205;SDS011;59358;52.134;5.596;2022-09-03T11:12:58;4.30;;;1.50;;
19205;SDS011;59358;52.134;5.596;2022-09-03T11:15:33;2.35;;;1.33;;
19205;SDS011;59358;52.134;5.596;2022-09-03T11:18:07;3.92;;;1.40;;
19205;SDS011;59358;52.134;5.596;2022-09-03T11:20:41;4.40;;;1.70;;
19205;SDS011;59358;52.134;5.596;2022-09-03T11:23:08;1.35;;;1.25;;
19205;SDS011;59358;52.134;5.596;2022-09-03T11:25:40;10.13;;;1.88;;
19205;SDS011;59358;52.134;5.596;2022-09-03T11:28:12;3.20;;;1.15;;
19205;SDS011;59358;52.134;5.596;2022-09-03T11:30:51;7.32;;;1.25;;
19205;SDS011;59358;52.134;5.596;2022-09-03T11:33:37;1.80;;;1.20;;
19205;SDS011;59358;52.134;5.596;2022-09-03T11:36:07;3.03;;;1.10;;
19205;SDS011;59358;52.134;5.596;2022-09-03T11:38:36;1.85;;;1.45;;
19205;SDS011;59358;52.134;5.596;2022-09-03T11:41:09;2.28;;;1.30;;
19205;SDS011;59358;52.134;5.596;2022-09-03T11:43:38;3.35;;;1.35;;
19205;SDS011;59358;52.134;5.596;2022-09-03T11:46:08;3.00;;;1.17;;
19205;SDS011;59358;52.134;5.596;2022-09-03T11:48:38;2.63;;;1.58;;
19205;SDS011;59358;52.134;5.596;2022-09-03T11:51:20;4.57;;;1.33;;
19205;SDS011;59358;52.134;5.596;2022-09-03T11:53:57;2.60;;;1.25;;
19205;SDS011;59358;52.134;5.596;2022-09-03T11:56:28;2.60;;;1.42;;
19205;SDS011;59358;52.134;5.596;2022-09-03T11:59:04;3.22;;;1.23;;
19205;SDS011;59358;52.134;5.596;2022-09-03T12:01:45;1.98;;;1.58;;
19205;SDS011;59358;52.134;5.596;2022-09-03T12:04:17;3.40;;;1.50;;
19205;SDS011;59358;52.134;5.596;2022-09-03T12:07:00;2.28;;;1.48;;
19205;SDS011;59358;52.134;5.596;2022-09-03T12:12:50;2.63;;;1.48;;
19205;SDS011;59358;52.134;5.596;2022-09-03T12:15:29;2.90;;;1.40;;
19205;SDS011;59358;52.134;5.596;2022-09-03T12:18:08;2.88;;;1.30;;
19205;SDS011;59358;52.134;5.596;2022-09-03T12:20:46;2.03;;;1.30;;
19205;SDS011;59358;52.134;5.596;2022-09-03T12:23:25;1.98;;;1.02;;
19205;SDS011;59358;52.134;5.596;2022-09-03T12:25:56;3.33;;;1.30;;
19205;SDS011;59358;52.134;5.596;2022-09-03T12:28:25;3.70;;;1.48;;
19205;SDS011;59358;52.134;5.596;2022-09-03T12:31:04;1.65;;;1.20;;
19205;SDS011;59358;52.134;5.596;2022-09-03T12:33:34;3.38;;;1.17;;
19205;SDS011;59358;52.134;5.596;2022-09-03T12:36:07;3.05;;;1.30;;
19205;SDS011;59358;52.134;5.596;2022-09-03T12:38:34;1.75;;;1.30;;
19205;SDS011;59358;52.134;5.596;2022-09-03T12:41:01;3.10;;;1.30;;
19205;SDS011;59358;52.134;5.596;2022-09-03T12:43:28;2.00;;;1.40;;
19205;SDS011;59358;52.134;5.596;2022-09-03T12:45:55;1.50;;;1.20;;
19205;SDS011;59358;52.134;5.596;2022-09-03T12:48:22;4.30;;;1.40;;
19205;SDS011;59358;52.134;5.596;2022-09-03T12:50:59;5.32;;;1.30;;
19205;SDS011;59358;52.134;5.596;2022-09-03T12:53:28;5.65;;;1.48;;
19205;SDS011;59358;52.134;5.596;2022-09-03T12:55:57;2.08;;;1.60;;
19205;SDS011;59358;52.134;5.596;2022-09-03T12:58:29;1.75;;;1.40;;
19205;SDS011;59358;52.134;5.596;2022-09-03T13:01:02;3.55;;;1.13;;
19205;SDS011;59358;52.134;5.596;2022-09-03T13:03:36;3.63;;;1.50;;
19205;SDS011;59358;52.134;5.596;2022-09-03T13:06:11;3.50;;;1.40;;
19205;SDS011;59358;52.134;5.596;2022-09-03T13:08:40;3.28;;;1.30;;
19205;SDS011;59358;52.134;5.596;2022-09-03T13:11:14;2.63;;;1.33;;
19205;SDS011;59358;52.134;5.596;2022-09-03T13:13:49;1.90;;;1.35;;
19205;SDS011;59358;52.134;5.596;2022-09-03T13:16:28;3.13;;;1.48;;
19205;SDS011;59358;52.134;5.596;2022-09-03T13:19:13;3.42;;;1.27;;
19205;SDS011;59358;52.134;5.596;2022-09-03T13:21:50;3.05;;;1.35;;
19205;SDS011;59358;52.134;5.596;2022-09-03T13:24:26;1.40;;;1.30;;
19205;SDS011;59358;52.134;5.596;2022-09-03T13:27:10;3.47;;;1.33;;
19205;SDS011;59358;52.134;5.596;2022-09-03T13:29:49;2.38;;;1.20;;
19205;SDS011;59358;52.134;5.596;2022-09-03T13:32:31;2.15;;;1.50;;
19205;SDS011;59358;52.134;5.596;2022-09-03T13:35:06;3.55;;;1.75;;
19205;SDS011;59358;52.134;5.596;2022-09-03T13:37:39;3.90;;;1.27;;
19205;SDS011;59358;52.134;5.596;2022-09-03T13:40:12;2.40;;;1.40;;
19205;SDS011;59358;52.134;5.596;2022-09-03T13:42:44;1.30;;;1.13;;
19205;SDS011;59358;52.134;5.596;2022-09-03T13:45:20;2.28;;;1.25;;
19205;SDS011;59358;52.134;5.596;2022-09-03T13:47:55;2.17;;;1.40;;
19205;SDS011;59358;52.134;5.596;2022-09-03T13:50:46;4.47;;;1.48;;
19205;SDS011;59358;52.134;5.596;2022-09-03T13:53:22;4.25;;;1.35;;
19205;SDS011;59358;52.134;5.596;2022-09-03T13:55:58;4.90;;;1.38;;
19205;SDS011;59358;52.134;5.596;2022-09-03T13:58:30;2.78;;;1.40;;
19205;SDS011;59358;52.134;5.596;2022-09-03T14:01:09;2.75;;;1.55;;
19205;SDS011;59358;52.134;5.596;2022-09-03T14:03:43;3.47;;;1.30;;
19205;SDS011;59358;52.134;5.596;2022-09-03T14:06:17;2.38;;;1.48;;
19205;SDS011;59358;52.134;5.596;2022-09-03T14:09:01;4.38;;;1.27;;
19205;SDS011;59358;52.134;5.596;2022-09-03T14:11:39;5.82;;;1.70;;
19205;SDS011;59358;52.134;5.596;2022-09-03T14:14:17;2.92;;;1.70;;
19205;SDS011;59358;52.134;5.596;2022-09-03T14:16:55;2.35;;;1.52;;
19205;SDS011;59358;52.134;5.596;2022-09-03T14:19:32;2.47;;;1.50;;
19205;SDS011;59358;52.134;5.596;2022-09-03T14:22:05;1.73;;;1.63;;
19205;SDS011;59358;52.134;5.596;2022-09-03T14:24:42;3.85;;;1.70;;
19205;SDS011;59358;52.134;5.596;2022-09-03T14:27:12;2.10;;;1.60;;
19205;SDS011;59358;52.134;5.596;2022-09-03T14:29:49;4.57;;;1.83;;
19205;SDS011;59358;52.134;5.596;2022-09-03T14:32:21;3.03;;;1.90;;
19205;SDS011;59358;52.134;5.596;2022-09-03T14:34:57;4.72;;;1.90;;
19205;SDS011;59358;52.134;5.596;2022-09-03T14:37:39;5.15;;;1.90;;
19205;SDS011;59358;52.134;5.596;2022-09-03T14:40:23;1.70;;;1.60;;
19205;SDS011;59358;52.134;5.596;2022-09-03T14:42:57;3.53;;;2.20;;
19205;SDS011;59358;52.134;5.596;2022-09-03T14:45:41;5.10;;;2.20;;
19205;SDS011;59358;52.134;5.596;2022-09-03T14:48:24;4.75;;;1.70;;
19205;SDS011;59358;52.134;5.596;2022-09-03T14:51:13;2.20;;;1.70;;
19205;SDS011;59358;52.134;5.596;2022-09-03T14:57:06;3.22;;;1.50;;
19205;SDS011;59358;52.134;5.596;2022-09-03T14:59:54;3.28;;;1.52;;
19205;SDS011;59358;52.134;5.596;2022-09-03T15:02:37;2.75;;;1.58;;
19205;SDS011;59358;52.134;5.596;2022-09-03T15:05:40;2.70;;;1.88;;
19205;SDS011;59358;52.134;5.596;2022-09-03T15:08:14;2.67;;;1.67;;
19205;SDS011;59358;52.134;5.596;2022-09-03T15:11:00;3.30;;;1.98;;
19205;SDS011;59358;52.134;5.596;2022-09-03T15:13:32;5.90;;;2.10;;
19205;SDS011;59358;52.134;5.596;2022-09-03T15:16:06;1.83;;;1.70;;
19205;SDS011;59358;52.134;5.596;2022-09-03T15:18:46;2.08;;;1.45;;
19205;SDS011;59358;52.134;5.596;2022-09-03T15:21:28;1.30;;;1.20;;
19205;SDS011;59358;52.134;5.596;2022-09-03T15:24:07;4.65;;;1.83;;
19205;SDS011;59358;52.134;5.596;2022-09-03T15:26:46;1.50;;;1.40;;
19205;SDS011;59358;52.134;5.596;2022-09-03T15:29:29;5.82;;;2.08;;
19205;SDS011;59358;52.134;5.596;2022-09-03T15:32:10;1.92;;;1.58;;
19205;SDS011;59358;52.134;5.596;2022-09-03T15:34:54;3.03;;;1.65;;
19205;SDS011;59358;52.134;5.596;2022-09-03T15:37:30;3.42;;;1.60;;
19205;SDS011;59358;52.134;5.596;2022-09-03T15:40:04;1.73;;;1.63;;
19205;SDS011;59358;52.134;5.596;2022-09-03T15:42:34;1.65;;;1.55;;
19205;SDS011;59358;52.134;5.596;2022-09-03T15:45:04;3.42;;;1.70;;
19205;SDS011;59358;52.134;5.596;2022-09-03T15:47:40;2.72;;;1.60;;
19205;SDS011;59358;52.134;5.596;2022-09-03T15:50:24;2.92;;;1.65;;
19205;SDS011;59358;52.134;5.596;2022-09-03T15:52:58;4.45;;;1.60;;
19205;SDS011;59358;52.134;5.596;2022-09-03T15:55:31;2.85;;;1.60;;
19205;SDS011;59358;52.134;5.596;2022-09-03T15:58:02;2.28;;;1.58;;
19205;SDS011;59358;52.134;5.596;2022-09-03T16:00:40;3.47;;;1.90;;
19205;SDS011;59358;52.134;5.596;2022-09-03T16:03:30;1.85;;;1.50;;
19205;SDS011;59358;52.134;5.596;2022-09-03T16:06:04;3.85;;;1.67;;
19205;SDS011;59358;52.134;5.596;2022-09-03T16:08:42;3.08;;;1.67;;
19205;SDS011;59358;52.134;5.596;2022-09-03T16:11:17;2.17;;;1.65;;
19205;SDS011;59358;52.134;5.596;2022-09-03T16:13:55;2.45;;;1.60;;
19205;SDS011;59358;52.134;5.596;2022-09-03T16:16:45;4.50;;;1.60;;
19205;SDS011;59358;52.134;5.596;2022-09-03T16:19:20;4.00;;;1.85;;
19205;SDS011;59358;52.134;5.596;2022-09-03T16:21:53;2.53;;;1.50;;
19205;SDS011;59358;52.134;5.596;2022-09-03T16:24:25;2.63;;;1.83;;
19205;SDS011;59358;52.134;5.596;2022-09-03T16:26:59;2.50;;;1.40;;
19205;SDS011;59358;52.134;5.596;2022-09-03T16:29:33;1.70;;;1.60;;
19205;SDS011;59358;52.134;5.596;2022-09-03T16:32:04;1.83;;;1.63;;
19205;SDS011;59358;52.134;5.596;2022-09-03T16:34:40;3.50;;;1.80;;